Time;durP1;ratioP1;P1;durP2;ratioP2;P2;SDS_P1;SDS_P2;PMS_P1;PMS_P2;Temp;Humidity;BMP_temperature;BMP_pressure;BME280_temperature;BME280_humidity;BME280_pressure;Samples;Min_cycle;Max_cycle;Signal;HPM_P1;HPM_P2
2022/04/04 00:01:18;;;;;;;0.40;0.37;;;;;;;-0.52;89.91;100705.97;5034023;28;21010;-77
2022/04/04 00:03:45;;;;;;;0.30;0.20;;;;;;;-0.50;90.70;100709.47;5017058;28;20467;-77
2022/04/04 00:06:11;;;;;;;0.20;0.10;;;;;;;-0.82;90.95;100697.38;5027211;28;20467;-77
2022/04/04 00:08:38;;;;;;;0.53;0.50;;;;;;;-0.65;91.88;100699.56;5016300;28;20509;-77
2022/04/04 00:11:06;;;;;;;0.20;0.10;;;;;;;-0.80;92.14;100687.91;5016142;28;20991;-76
2022/04/04 00:13:33;;;;;;;0.33;0.33;;;;;;;-0.66;92.56;100696.94;5033112;28;20511;-76
2022/04/04 00:16:00;;;;;;;0.20;0.10;;;;;;;-0.85;92.64;100679.06;5036080;28;20456;-77
2022/04/04 00:18:27;;;;;;;0.70;0.67;;;;;;;-0.98;92.89;100698.75;5019587;28;20492;-77
2022/04/04 00:20:53;;;;;;;0.20;0.10;;;;;;;-0.85;93.46;100698.22;5034845;28;20455;-77
2022/04/04 00:23:20;;;;;;;0.20;0.10;;;;;;;-0.84;93.36;100692.16;5011671;28;20484;-77
2022/04/04 00:25:48;;;;;;;0.20;0.10;;;;;;;-0.92;93.12;100691.09;5025162;28;20968;-77
2022/04/04 00:28:15;;;;;;;0.20;0.10;;;;;;;-0.71;92.95;100693.31;5029480;28;20498;-77
2022/04/04 00:30:42;;;;;;;0.20;0.10;;;;;;;-0.98;92.06;100681.38;5033904;28;20984;-77
2022/04/04 00:33:09;;;;;;;0.20;0.10;;;;;;;-1.02;92.79;100695.19;5033131;28;20516;-77
2022/04/04 00:35:36;;;;;;;0.20;0.20;;;;;;;-1.13;93.37;100673.19;5014081;28;21058;-77
2022/04/04 00:38:05;;;;;;;0.20;0.10;;;;;;;-1.04;93.59;100682.97;5015793;28;20495;-76
2022/04/04 00:40:31;;;;;;;0.20;0.10;;;;;;;-0.95;93.67;100684.09;5032783;28;20443;-76
2022/04/04 00:42:58;;;;;;;0.20;0.20;;;;;;;-0.87;92.82;100676.41;5015978;28;20459;-77
2022/04/04 00:45:24;;;;;;;0.20;0.10;;;;;;;-0.87;92.83;100679.03;5016404;28;20502;-77
2022/04/04 00:47:51;;;;;;;0.20;0.10;;;;;;;-0.95;92.63;100678.00;5015707;28;20506;-76
2022/04/04 00:50:18;;;;;;;0.77;0.77;;;;;;;-0.74;91.83;100674.97;5016131;28;20452;-77
2022/04/04 00:52:45;;;;;;;0.20;0.10;;;;;;;-0.88;91.99;100668.56;5012021;28;20506;-76
2022/04/04 00:55:12;;;;;;;0.20;0.10;;;;;;;-0.94;91.57;100674.53;5024415;28;20529;-77
2022/04/04 00:57:39;;;;;;;0.73;0.73;;;;;;;-1.02;92.10;100670.84;5032901;28;20452;-77
2022/04/04 01:00:09;;;;;;;1.03;1.03;;;;;;;-0.99;93.08;100673.50;5015564;28;21078;-76
2022/04/04 01:02:36;;;;;;;0.20;0.10;;;;;;;-1.05;93.16;100668.16;5028028;28;20480;-77
2022/04/04 01:05:04;;;;;;;19.07;2.57;;;;;;;-1.02;93.76;100668.22;5017591;28;20523;-77
2022/04/04 01:07:32;;;;;;;0.87;0.87;;;;;;;-0.95;93.92;100663.22;5032235;28;20821;-76
2022/04/04 01:09:58;;;;;;;0.40;0.40;;;;;;;-0.65;92.37;100657.81;5016042;28;20448;-77
2022/04/04 01:12:26;;;;;;;0.20;0.10;;;;;;;-0.40;91.68;100653.13;5026935;28;20452;-78
2022/04/04 01:14:52;;;;;;;0.20;0.10;;;;;;;-0.62;91.59;100647.44;5037462;28;20475;-77
2022/04/04 01:17:25;;;;;;;0.40;0.40;;;;;;;-0.50;92.40;100646.81;5033460;28;20478;-77
2022/04/04 01:19:52;;;;;;;0.20;0.10;;;;;;;-0.55;92.69;100638.00;5015779;28;20863;-77
2022/04/04 01:22:19;;;;;;;0.20;0.10;;;;;;;-0.69;93.69;100647.25;5031300;28;21026;-77
2022/04/04 01:24:45;;;;;;;0.20;0.10;;;;;;;-0.60;93.48;100643.13;5037305;28;20479;-77
2022/04/04 01:27:13;;;;;;;0.20;0.10;;;;;;;-0.55;93.52;100644.94;5036887;28;20451;-77
2022/04/04 01:29:40;;;;;;;0.20;0.10;;;;;;;-0.67;94.35;100643.84;5036368;28;20510;-77
2022/04/04 01:32:07;;;;;;;0.30;0.30;;;;;;;-0.52;94.62;100642.44;5036782;28;21017;-77
2022/04/04 01:34:34;;;;;;;0.20;0.10;;;;;;;-0.66;94.46;100636.91;5032933;28;21162;-76
2022/04/04 01:37:02;;;;;;;0.20;0.10;;;;;;;-0.45;94.51;100626.91;5036841;28;20494;-77
2022/04/04 01:39:28;;;;;;;0.20;0.10;;;;;;;-0.42;93.58;100632.19;5038235;28;20487;-77
2022/04/04 01:41:55;;;;;;;0.20;0.10;;;;;;;-0.41;93.45;100630.47;5036207;28;20447;-77
2022/04/04 01:44:22;;;;;;;0.20;0.10;;;;;;;-0.47;93.77;100631.22;5037590;28;20472;-77
2022/04/04 01:46:48;;;;;;;0.20;0.10;;;;;;;-0.52;94.30;100638.09;5019226;28;20510;-77
2022/04/04 01:49:15;;;;;;;0.20;0.10;;;;;;;-0.48;94.33;100641.63;5036189;28;20957;-76
2022/04/04 01:51:42;;;;;;;0.20;0.10;;;;;;;-0.39;94.30;100631.41;5036147;28;20454;-77
2022/04/04 01:54:09;;;;;;;0.20;0.10;;;;;;;-0.46;94.60;100627.75;5018971;28;20472;-77
2022/04/04 01:56:35;;;;;;;0.20;0.10;;;;;;;-0.49;94.65;100622.47;5037722;28;20456;-77
2022/04/04 01:59:02;;;;;;;0.30;0.20;;;;;;;-0.51;94.68;100637.25;5037486;28;20487;-76
2022/04/04 02:01:32;;;;;;;0.20;0.10;;;;;;;-0.35;95.44;100639.31;5037486;28;20827;-77
2022/04/04 02:03:59;;;;;;;0.20;0.10;;;;;;;-0.16;94.76;100631.84;5024860;28;20525;-76
2022/04/04 02:06:25;;;;;;;0.20;0.10;;;;;;;-0.19;93.66;100627.44;5033579;28;20497;-77
2022/04/04 02:08:52;;;;;;;0.30;0.20;;;;;;;-0.34;93.72;100621.91;5025004;28;20452;-76
2022/04/04 02:11:20;;;;;;;0.20;0.10;;;;;;;-0.48;93.90;100612.91;5038243;28;20957;-77
2022/04/04 02:13:47;;;;;;;0.77;0.77;;;;;;;-0.42;94.71;100618.25;5033438;28;20475;-77
2022/04/04 02:16:14;;;;;;;0.20;0.10;;;;;;;-0.48;94.64;100613.78;5035816;28;20944;-77
2022/04/04 02:18:41;;;;;;;0.53;0.53;;;;;;;-0.43;94.48;100619.09;5035615;28;20493;-77
2022/04/04 02:21:08;;;;;;;0.20;0.20;;;;;;;-0.45;93.77;100618.19;5035432;28;20439;-77
2022/04/04 02:23:34;;;;;;;0.20;0.10;;;;;;;-0.42;94.58;100619.13;5034165;28;20459;-77
2022/04/04 02:26:01;;;;;;;0.20;0.10;;;;;;;-0.45;94.27;100616.47;5018995;28;20534;-77
2022/04/04 02:28:29;;;;;;;0.20;0.10;;;;;;;-0.62;95.02;100618.72;5035850;28;20455;-77
2022/04/04 02:30:56;;;;;;;0.20;0.10;;;;;;;-0.65;95.28;100607.34;5037776;28;20439;-77
2022/04/04 02:33:24;;;;;;;0.60;0.60;;;;;;;-0.68;96.69;100616.00;5033701;28;20482;-77
2022/04/04 02:35:52;;;;;;;0.20;0.10;;;;;;;-0.62;95.57;100617.84;5033383;28;20478;-76
2022/04/04 02:38:24;;;;;;;0.50;0.50;;;;;;;-0.57;96.26;100610.97;5034700;28;20487;-76
2022/04/04 02:40:52;;;;;;;0.20;0.10;;;;;;;-0.69;95.96;100605.50;5035429;28;21048;-77
2022/04/04 02:43:19;;;;;;;0.20;0.10;;;;;;;-0.60;96.74;100603.09;5035394;28;20456;-77
2022/04/04 02:45:47;;;;;;;0.20;0.10;;;;;;;-0.47;95.29;100615.56;5036274;28;20479;-78
2022/04/04 02:48:17;;;;;;;0.20;0.10;;;;;;;-0.56;95.56;100604.91;4992251;28;20452;-77
2022/04/04 02:50:45;;;;;;;0.20;0.10;;;;;;;-0.52;95.31;100608.50;5035060;28;20448;-77
2022/04/04 02:53:12;;;;;;;0.20;0.10;;;;;;;-0.60;95.67;100611.81;5017353;28;20452;-77
2022/04/04 02:58:24;;;;;;;0.50;0.50;;;;;;;-0.65;94.51;100594.28;5034359;28;20483;-77
2022/04/04 03:00:51;;;;;;;0.20;0.10;;;;;;;-0.74;95.71;100594.97;5034093;28;20553;-77
2022/04/04 03:03:18;;;;;;;0.20;0.10;;;;;;;-0.81;96.25;100581.78;5034362;28;20462;-77
2022/04/04 03:05:46;;;;;;;7.17;3.40;;;;;;;-0.74;96.28;100591.47;5025447;28;20455;-77
2022/04/04 03:08:13;;;;;;;0.20;0.10;;;;;;;-0.81;95.90;100592.19;5016686;28;20539;-77
2022/04/04 03:10:40;;;;;;;0.20;0.10;;;;;;;-0.84;96.40;100582.56;5016504;28;20460;-77
2022/04/04 03:13:06;;;;;;;0.50;0.47;;;;;;;-0.79;96.10;100590.50;5017539;28;20502;-76
2022/04/04 03:15:35;;;;;;;0.20;0.10;;;;;;;-0.75;96.11;100588.00;5014259;28;20531;-78
2022/04/04 03:18:03;;;;;;;0.20;0.10;;;;;;;-0.83;95.66;100581.72;5008913;28;21022;-77
2022/04/04 03:20:31;;;;;;;0.20;0.10;;;;;;;-0.79;96.05;100585.28;5034854;28;20866;-77
2022/04/04 03:22:58;;;;;;;0.20;0.10;;;;;;;-0.81;95.89;100580.03;5030451;28;20447;-77
2022/04/04 03:25:26;;;;;;;0.20;0.10;;;;;;;-0.96;96.41;100583.19;5034896;28;20476;-77
2022/04/04 03:27:53;;;;;;;0.33;0.30;;;;;;;-1.00;96.53;100578.72;5017274;28;20448;-77
2022/04/04 03:30:28;;;;;;;1.23;1.13;;;;;;;-0.95;96.06;100571.91;5034114;28;20440;-77
2022/04/04 03:32:59;;;;;;;0.20;0.10;;;;;;;-1.14;96.09;100571.44;5033788;28;20860;-77
2022/04/04 03:35:28;;;;;;;0.20;0.10;;;;;;;-1.12;96.28;100564.53;5032169;28;21037;-76
2022/04/04 03:37:57;;;;;;;0.20;0.10;;;;;;;-1.15;95.99;100565.34;5015966;28;20488;-76
2022/04/04 03:40:24;;;;;;;0.63;0.63;;;;;;;-1.28;95.73;100560.69;5016913;28;20495;-77
2022/04/04 03:42:53;;;;;;;0.20;0.10;;;;;;;-1.18;96.45;100567.88;5032635;28;20440;-76
2022/04/04 03:45:20;;;;;;;0.20;0.10;;;;;;;-1.18;95.84;100562.69;5032265;28;20471;-76
2022/04/04 03:47:48;;;;;;;0.20;0.10;;;;;;;-1.17;95.61;100559.22;5033828;28;20470;-77
2022/04/04 03:50:16;;;;;;;0.20;0.20;;;;;;;-1.31;95.21;100545.88;5033788;28;20486;-76
2022/04/04 03:52:53;;;;;;;0.20;0.10;;;;;;;-1.24;95.26;100544.25;5016014;28;20848;-76
2022/04/04 03:55:22;;;;;;;0.20;0.10;;;;;;;-1.23;95.15;100546.06;5016404;28;20840;-76
2022/04/04 03:57:51;;;;;;;0.20;0.10;;;;;;;-1.23;94.57;100543.44;5033483;28;20937;-76
2022/04/04 04:00:18;;;;;;;0.20;0.10;;;;;;;-1.38;94.54;100530.91;5033308;28;20491;-76
2022/04/04 04:02:45;;;;;;;0.20;0.10;;;;;;;-1.39;94.93;100546.50;5033666;28;20440;-76
2022/04/04 04:05:12;;;;;;;0.20;0.10;;;;;;;-1.40;94.76;100534.34;5025345;28;20476;-76
2022/04/04 04:07:39;;;;;;;0.20;0.10;;;;;;;-1.52;95.03;100524.50;5033175;28;20509;-76
2022/04/04 04:10:06;;;;;;;0.20;0.10;;;;;;;-1.28;94.39;100532.88;5033978;28;20444;-76
2022/04/04 04:12:33;;;;;;;0.20;0.10;;;;;;;-1.48;94.41;100533.28;5002621;28;20451;-77
2022/04/04 04:15:00;;;;;;;3.83;1.13;;;;;;;-1.42;94.22;100529.09;5030561;28;21048;-77
2022/04/04 04:17:26;;;;;;;0.20;0.10;;;;;;;-1.42;94.08;100523.00;5003048;28;20535;-77
2022/04/04 04:22:38;;;;;;;0.20;0.10;;;;;;;-1.43;93.79;100516.03;5019502;28;20449;-77
2022/04/04 04:25:06;;;;;;;0.20;0.10;;;;;;;-1.65;93.73;100517.22;5026595;28;20523;-77
2022/04/04 04:27:33;;;;;;;0.20;0.13;;;;;;;-1.45;95.13;100521.19;5023684;28;20498;-77
2022/04/04 04:30:00;;;;;;;0.20;0.10;;;;;;;-1.54;94.14;100516.63;5032714;28;20448;-74
2022/04/04 04:32:26;;;;;;;0.20;0.10;;;;;;;-1.24;94.99;100508.63;5015803;28;20463;-76
2022/04/04 04:34:53;;;;;;;0.20;0.10;;;;;;;-1.34;92.24;100518.84;5010293;28;20488;-77
2022/04/04 04:37:24;;;;;;;0.20;0.10;;;;;;;-1.38;93.50;100517.00;5005867;28;20455;-77
2022/04/04 04:39:50;;;;;;;0.20;0.10;;;;;;;-1.40;92.97;100513.47;5033243;28;20541;-77
2022/04/04 04:42:17;;;;;;;0.20;0.10;;;;;;;-1.60;93.63;100508.69;5031849;28;20454;-77
2022/04/04 04:44:46;;;;;;;0.20;0.10;;;;;;;-1.39;93.64;100510.91;5032928;28;20471;-76
2022/04/04 04:47:15;;;;;;;0.20;0.10;;;;;;;-1.58;94.19;100503.50;5031995;28;20455;-76
2022/04/04 04:49:42;;;;;;;0.20;0.20;;;;;;;-1.39;92.40;100502.19;5028061;28;20510;-76
2022/04/04 04:52:09;;;;;;;0.20;0.10;;;;;;;-1.52;93.04;100488.00;5025384;28;20451;-76
2022/04/04 04:54:36;;;;;;;0.20;0.10;;;;;;;-1.52;92.96;100503.63;5032706;28;20517;-76
2022/04/04 04:57:03;;;;;;;0.20;0.10;;;;;;;-1.40;93.49;100501.31;5034935;28;20952;-77
2022/04/04 04:59:30;;;;;;;0.20;0.17;;;;;;;-1.53;93.35;100494.06;5019138;28;20878;-76
2022/04/04 05:01:57;;;;;;;0.30;0.20;;;;;;;-1.58;93.89;100493.97;5019649;28;20452;-76
2022/04/04 05:04:23;;;;;;;0.20;0.10;;;;;;;-1.61;94.71;100488.69;5035668;28;20467;-76
2022/04/04 05:06:50;;;;;;;0.20;0.10;;;;;;;-1.52;95.10;100495.81;5029980;28;20509;-76
2022/04/04 05:09:17;;;;;;;0.20;0.10;;;;;;;-1.64;94.16;100480.81;5023409;28;20447;-76
2022/04/04 05:11:44;;;;;;;0.20;0.10;;;;;;;-1.68;95.75;100480.69;5037067;28;20559;-76
2022/04/04 05:14:15;;;;;;;0.20;0.10;;;;;;;-1.66;96.59;100481.59;5010015;28;20472;-76
2022/04/04 05:16:46;;;;;;;0.20;0.10;;;;;;;-1.57;96.36;100485.31;5013100;28;20440;-76
2022/04/04 05:19:16;;;;;;;0.20;0.10;;;;;;;-1.51;95.71;100481.94;5018800;28;20553;-76
2022/04/04 05:21:43;;;;;;;0.20;0.10;;;;;;;-1.54;95.75;100481.88;5030889;28;20965;-76
2022/04/04 05:24:10;;;;;;;0.20;0.10;;;;;;;-1.42;95.79;100476.06;5036719;28;20529;-76
2022/04/04 05:26:37;;;;;;;0.20;0.10;;;;;;;-1.15;93.80;100479.28;5018882;28;20448;-76
2022/04/04 05:29:04;;;;;;;0.20;0.10;;;;;;;-0.99;93.52;100473.53;5036646;28;21030;-76
2022/04/04 05:31:31;;;;;;;0.20;0.10;;;;;;;-0.90;92.33;100475.47;5036318;28;20506;-76
2022/04/04 05:33:59;;;;;;;0.20;0.10;;;;;;;-0.69;90.57;100473.28;5036191;28;20479;-77
2022/04/04 05:36:27;;;;;;;0.20;0.10;;;;;;;-0.49;90.88;100471.06;5032033;28;20855;-76
2022/04/04 05:38:55;;;;;;;0.20;0.10;;;;;;;-0.29;89.51;100471.41;5017196;28;20457;-77
2022/04/04 05:41:21;;;;;;;0.20;0.10;;;;;;;-0.48;89.77;100474.56;5033701;28;20992;-76
2022/04/04 05:43:48;;;;;;;0.20;0.20;;;;;;;-0.39;90.03;100473.00;5035677;28;20549;-76
2022/04/04 05:46:16;;;;;;;0.20;0.10;;;;;;;-0.42;90.22;100469.44;5035771;28;20452;-77
2022/04/04 05:48:44;;;;;;;0.20;0.10;;;;;;;-0.42;91.37;100477.25;5018720;28;20451;-77
2022/04/04 05:51:13;;;;;;;0.67;0.67;;;;;;;-0.35;91.52;100472.19;5014932;28;20448;-76
2022/04/04 05:53:39;;;;;;;0.30;0.30;;;;;;;-0.42;91.47;100475.53;5026901;28;20550;-76
2022/04/04 05:56:06;;;;;;;0.20;0.10;;;;;;;-0.27;91.05;100479.28;5035755;28;20509;-77
2022/04/04 05:58:33;;;;;;;0.23;0.17;;;;;;;-0.39;89.71;100452.13;5036416;28;20502;-76
2022/04/04 06:00:59;;;;;;;0.20;0.10;;;;;;;-0.15;90.52;100476.88;5035435;28;20491;-77
2022/04/04 06:03:27;;;;;;;0.93;0.93;;;;;;;-0.11;90.82;100478.72;5018316;28;20537;-77
2022/04/04 06:05:54;;;;;;;0.20;0.20;;;;;;;-0.08;91.07;100484.00;5026788;28;20539;-76
2022/04/04 06:08:21;;;;;;;0.20;0.10;;;;;;;-0.01;91.10;100478.00;5035323;28;20462;-77
2022/04/04 06:10:48;;;;;;;0.20;0.10;;;;;;;0.03;90.87;100474.59;5035594;28;20459;-76
2022/04/04 06:13:17;;;;;;;0.20;0.13;;;;;;;0.04;90.64;100468.53;5035898;28;20456;-76
2022/04/04 06:15:45;;;;;;;0.20;0.10;;;;;;;0.26;90.16;100470.59;5035619;28;20900;-76
2022/04/04 06:18:13;;;;;;;0.20;0.10;;;;;;;0.37;89.94;100468.16;5035676;28;20543;-77
2022/04/04 06:20:40;;;;;;;0.20;0.10;;;;;;;0.44;89.71;100463.94;5036970;28;20514;-77
2022/04/04 06:23:07;;;;;;;1.07;1.07;;;;;;;0.50;89.84;100464.00;5042518;28;20459;-76
2022/04/04 06:25:35;;;;;;;0.30;0.20;;;;;;;0.59;89.30;100457.19;5036564;28;20476;-77
2022/04/04 06:28:03;;;;;;;0.20;0.10;;;;;;;0.64;89.65;100466.81;5037476;28;20440;-77
2022/04/04 06:30:29;;;;;;;0.20;0.10;;;;;;;0.66;89.36;100458.13;5018627;28;20514;-76
2022/04/04 06:32:56;;;;;;;0.20;0.10;;;;;;;0.87;88.34;100455.81;5043349;28;20896;-77
2022/04/04 06:35:26;;;;;;;0.20;0.10;;;;;;;0.94;86.61;100458.50;5042741;28;20471;-78
2022/04/04 06:37:53;;;;;;;0.20;0.10;;;;;;;1.08;87.04;100455.19;5044164;28;20471;-77
2022/04/04 06:40:20;;;;;;;0.20;0.10;;;;;;;1.18;86.23;100449.22;5026772;28;20492;-77
2022/04/04 06:42:48;;;;;;;0.20;0.10;;;;;;;1.27;86.37;100455.44;5044555;28;20455;-77
2022/04/04 06:45:17;;;;;;;0.20;0.10;;;;;;;1.61;84.79;100448.81;5035928;28;20485;-76
2022/04/04 06:47:44;;;;;;;0.20;0.10;;;;;;;1.69;83.79;100447.16;5014953;28;20456;-77
2022/04/04 06:50:13;;;;;;;0.20;0.10;;;;;;;1.96;82.74;100444.78;5009996;28;20452;-77
2022/04/04 06:52:41;;;;;;;0.20;0.13;;;;;;;2.25;81.33;100436.28;5020818;28;20551;-77
2022/04/04 06:55:28;;;;;;;0.20;0.10;;;;;;;2.58;78.59;100438.25;5023702;28;20472;-77
2022/04/04 06:57:55;;;;;;;0.20;0.10;;;;;;;2.67;78.86;100435.69;5037530;28;20459;-76
2022/04/04 07:00:23;;;;;;;0.20;0.10;;;;;;;2.76;76.36;100434.88;5020531;28;20553;-76
2022/04/04 07:02:50;;;;;;;0.30;0.30;;;;;;;3.00;75.21;100432.34;5020880;28;20455;-76
2022/04/04 07:05:17;;;;;;;0.20;0.20;;;;;;;3.52;73.16;100422.00;5028846;28;20473;-77
2022/04/04 07:07:44;;;;;;;0.20;0.10;;;;;;;3.40;73.50;100429.84;5039498;28;20448;-77
2022/04/04 07:10:11;;;;;;;0.20;0.10;;;;;;;3.67;73.65;100414.13;5040787;28;20525;-76
2022/04/04 07:12:44;;;;;;;0.27;0.17;;;;;;;3.75;72.03;100425.56;5024053;28;20459;-76
2022/04/04 07:15:11;;;;;;;0.20;0.10;;;;;;;3.98;69.34;100429.97;5037458;28;20517;-76
2022/04/04 07:17:43;;;;;;;1.13;1.13;;;;;;;4.27;68.75;100414.16;5021911;28;20482;-78
2022/04/04 07:20:11;;;;;;;1.07;1.07;;;;;;;4.17;68.06;100408.03;5040191;28;20451;-76
2022/04/04 07:22:42;;;;;;;0.20;0.10;;;;;;;4.29;66.90;100394.88;5035882;28;20455;-76
2022/04/04 07:25:11;;;;;;;0.20;0.10;;;;;;;4.45;66.80;100399.22;5040463;28;20502;-76
2022/04/04 07:27:40;;;;;;;0.20;0.20;;;;;;;4.71;65.41;100400.91;5023299;28;21002;-76
2022/04/04 07:30:08;;;;;;;0.20;0.10;;;;;;;4.78;64.46;100399.13;5021991;28;20451;-77
2022/04/04 07:32:39;;;;;;;1.50;1.23;;;;;;;4.71;64.46;100399.16;5022016;28;20455;-76
2022/04/04 07:35:11;;;;;;;0.30;0.20;;;;;;;4.91;63.90;100390.28;5020482;28;20472;-76
2022/04/04 07:37:42;;;;;;;0.20;0.10;;;;;;;4.92;64.33;100387.66;5040526;28;20452;-76
2022/04/04 07:40:14;;;;;;;0.20;0.10;;;;;;;5.19;63.31;100391.91;5003183;28;20464;-77
2022/04/04 07:42:43;;;;;;;0.20;0.20;;;;;;;5.09;62.18;100387.59;5019427;28;20445;-76
2022/04/04 07:45:10;;;;;;;1.13;1.13;;;;;;;5.45;62.36;100386.50;5039207;28;20472;-76
2022/04/04 07:47:38;;;;;;;0.33;0.33;;;;;;;5.58;61.10;100382.03;5021139;28;20452;-77
2022/04/04 07:50:07;;;;;;;2.30;1.60;;;;;;;5.79;60.30;100375.72;5037527;28;20860;-76
2022/04/04 07:52:34;;;;;;;0.20;0.10;;;;;;;5.77;60.81;100375.75;5034255;28;20447;-76
2022/04/04 07:55:01;;;;;;;0.20;0.10;;;;;;;5.96;59.97;100362.44;5020839;28;20494;-76
2022/04/04 07:57:27;;;;;;;0.30;0.17;;;;;;;5.86;59.53;100364.22;5039320;28;20509;-76
2022/04/04 07:59:54;;;;;;;0.40;0.40;;;;;;;6.10;58.67;100364.06;5035411;28;20803;-76
2022/04/04 08:02:21;;;;;;;0.43;0.43;;;;;;;6.10;59.23;100361.41;5016382;28;20526;-75
2022/04/04 08:04:47;;;;;;;0.23;0.10;;;;;;;6.35;58.91;100358.56;5029183;28;20781;-76
2022/04/04 08:07:15;;;;;;;0.20;0.10;;;;;;;6.33;57.70;100355.06;5014851;28;20459;-76
2022/04/04 08:09:42;;;;;;;0.30;0.20;;;;;;;6.33;57.74;100349.78;5020681;28;20448;-76
2022/04/04 08:12:09;;;;;;;0.30;0.20;;;;;;;6.51;57.68;100352.22;5037511;28;20518;-76
2022/04/04 08:14:37;;;;;;;0.30;0.23;;;;;;;6.45;58.25;100342.59;5033379;28;20984;-76
2022/04/04 08:17:05;;;;;;;0.30;0.20;;;;;;;6.84;55.71;100350.91;5017431;28;20459;-76
2022/04/04 08:19:32;;;;;;;2.73;0.60;;;;;;;6.85;55.49;100342.09;5034096;28;20459;-76
2022/04/04 08:21:59;;;;;;;0.30;0.20;;;;;;;6.99;55.36;100326.97;5029725;28;20869;-77
2022/04/04 08:24:26;;;;;;;0.30;0.20;;;;;;;7.25;55.82;100328.34;5034818;28;20511;-76
2022/04/04 08:26:53;;;;;;;0.73;0.73;;;;;;;7.21;55.17;100331.94;5034675;28;20455;-77
2022/04/04 08:29:20;;;;;;;0.30;0.20;;;;;;;7.24;54.04;100324.84;5034569;28;20454;-76
2022/04/04 08:31:47;;;;;;;0.30;0.10;;;;;;;7.28;54.30;100316.00;5036341;28;20594;-77
2022/04/04 08:34:14;;;;;;;0.30;0.20;;;;;;;7.57;53.26;100304.97;5038982;28;20479;-77
2022/04/04 08:36:41;;;;;;;0.30;0.20;;;;;;;7.38;53.11;100301.72;5017522;28;20455;-77
2022/04/04 08:39:08;;;;;;;0.60;0.60;;;;;;;7.50;54.36;100295.34;5021055;28;20455;-77
2022/04/04 08:41:35;;;;;;;0.30;0.20;;;;;;;7.65;53.34;100294.22;5038908;28;20487;-77
2022/04/04 08:44:03;;;;;;;0.30;0.10;;;;;;;7.84;52.86;100290.41;5039127;28;20464;-77
2022/04/04 08:46:30;;;;;;;0.30;0.20;;;;;;;7.80;52.65;100285.16;5038401;28;21013;-77
2022/04/04 08:48:58;;;;;;;0.53;0.53;;;;;;;7.83;52.18;100286.00;5038540;28;20455;-77
2022/04/04 08:51:26;;;;;;;0.30;0.20;;;;;;;8.02;51.99;100281.25;5021214;28;20448;-77
2022/04/04 08:53:54;;;;;;;0.40;0.33;;;;;;;7.83;51.02;100272.78;5038570;28;20475;-77
2022/04/04 08:56:25;;;;;;;0.30;0.30;;;;;;;8.28;51.83;100278.09;5021235;28;20439;-78
2022/04/04 08:58:53;;;;;;;0.30;0.20;;;;;;;8.25;51.35;100272.88;5037858;28;20443;-77
2022/04/04 09:01:22;;;;;;;0.30;0.20;;;;;;;8.24;50.92;100268.50;5037386;28;21003;-77
2022/04/04 09:04:11;;;;;;;0.30;0.20;;;;;;;8.46;50.65;100261.88;5020759;28;20459;-77
2022/04/04 09:06:51;;;;;;;0.30;0.20;;;;;;;8.61;50.01;100240.34;5013406;28;21004;-77
2022/04/04 09:09:24;;;;;;;0.30;0.20;;;;;;;8.61;49.11;100244.78;4996596;28;20447;-77
2022/04/04 09:12:08;;;;;;;0.40;0.33;;;;;;;8.96;50.08;100236.06;5037451;28;20444;-76
2022/04/04 09:14:49;;;;;;;0.60;0.57;;;;;;;8.81;50.03;100220.50;5035288;28;20525;-76
2022/04/04 09:17:19;;;;;;;0.30;0.30;;;;;;;8.89;49.60;100229.16;5002333;28;20945;-76
2022/04/04 09:19:45;;;;;;;0.60;0.60;;;;;;;9.04;48.63;100219.97;5012715;28;20460;-76
2022/04/04 09:22:20;;;;;;;0.30;0.20;;;;;;;9.25;47.91;100215.94;5019579;28;20487;-77
2022/04/04 09:24:58;;;;;;;0.30;0.20;;;;;;;9.34;48.69;100213.94;5019935;28;20467;-77
2022/04/04 09:27:31;;;;;;;0.30;0.30;;;;;;;9.12;48.46;100228.63;5036838;28;20502;-77
2022/04/04 09:29:59;;;;;;;0.30;0.20;;;;;;;9.14;47.82;100209.13;5037844;28;20461;-76
2022/04/04 09:32:44;;;;;;;0.30;0.20;;;;;;;9.63;48.22;100191.97;5019272;28;20541;-77
2022/04/04 09:35:16;;;;;;;0.30;0.20;;;;;;;9.74;48.63;100187.25;5033890;28;20474;-76
2022/04/04 09:37:45;;;;;;;0.30;0.20;;;;;;;9.54;47.67;100186.03;5036122;28;20451;-77
2022/04/04 09:40:15;;;;;;;0.30;0.20;;;;;;;9.62;47.14;100181.41;4992812;28;20529;-77
2022/04/04 09:42:56;;;;;;;0.30;0.20;;;;;;;9.53;46.51;100189.59;5017365;28;20483;-76
2022/04/04 09:45:24;;;;;;;0.30;0.20;;;;;;;9.66;46.07;100180.41;5035300;28;20468;-77
2022/04/04 09:48:11;;;;;;;0.30;0.20;;;;;;;9.56;44.44;100177.09;5016347;28;20528;-77
2022/04/04 09:50:44;;;;;;;0.30;0.20;;;;;;;9.55;45.17;100169.19;5032117;28;20459;-77
2022/04/04 09:53:15;;;;;;;0.30;0.30;;;;;;;9.84;45.79;100166.63;5019584;28;20468;-77
2022/04/04 09:55:49;;;;;;;1.43;1.43;;;;;;;10.04;44.40;100161.63;5035273;28;20959;-77
2022/04/04 09:58:18;;;;;;;0.30;0.20;;;;;;;10.11;44.44;100151.69;5017976;28;20452;-76
2022/04/04 10:00:48;;;;;;;0.30;0.20;;;;;;;9.82;44.04;100159.63;5033218;28;20436;-77
2022/04/04 10:03:20;;;;;;;0.30;0.20;;;;;;;9.93;43.80;100146.94;5027706;28;20513;-78
2022/04/04 10:05:53;;;;;;;0.30;0.20;;;;;;;10.08;44.20;100142.03;5026966;28;20494;-77
2022/04/04 10:08:24;;;;;;;0.30;0.20;;;;;;;10.15;43.90;100142.75;5035828;28;20513;-77
2022/04/04 10:10:53;;;;;;;0.30;0.20;;;;;;;9.92;43.85;100132.78;5036983;28;21016;-77
2022/04/04 10:13:20;;;;;;;0.30;0.20;;;;;;;9.98;44.54;100121.09;5017880;28;20451;-78
2022/04/04 10:15:48;;;;;;;0.30;0.20;;;;;;;10.03;44.15;100111.22;5022913;28;20860;-77
2022/04/04 10:18:15;;;;;;;0.30;0.20;;;;;;;10.21;42.81;100116.03;5035573;28;20922;-77
2022/04/04 10:20:42;;;;;;;0.30;0.20;;;;;;;10.13;41.57;100104.72;5036525;28;20467;-77
2022/04/04 10:23:12;;;;;;;0.30;0.20;;;;;;;10.20;42.02;100108.94;5030153;28;20462;-77
2022/04/04 10:25:40;;;;;;;0.30;0.20;;;;;;;10.20;42.65;100098.31;5018365;28;20526;-77
2022/04/04 10:28:07;;;;;;;0.70;0.70;;;;;;;10.12;42.60;100094.13;5017039;28;20448;-78
2022/04/04 10:30:42;;;;;;;0.30;0.20;;;;;;;10.28;42.72;100099.00;5017808;28;20518;-77
2022/04/04 10:33:22;;;;;;;0.30;0.20;;;;;;;10.24;41.73;100083.19;5018309;28;20462;-77
2022/04/04 10:36:01;;;;;;;0.40;0.30;;;;;;;10.72;42.60;100061.31;5032702;28;20448;-77
2022/04/04 10:38:46;;;;;;;0.73;0.73;;;;;;;10.98;42.84;100079.94;5016615;28;20471;-78
2022/04/04 10:41:18;;;;;;;0.30;0.20;;;;;;;10.62;42.11;100066.03;5018573;28;20915;-78
2022/04/04 10:43:52;;;;;;;1.13;1.03;;;;;;;10.49;41.47;100062.03;5017123;28;21032;-77
2022/04/04 10:46:21;;;;;;;0.40;0.30;;;;;;;10.73;42.38;100069.22;5004356;28;20450;-78
2022/04/04 10:48:53;;;;;;;0.30;0.20;;;;;;;10.81;41.86;100058.31;5035781;28;20440;-78
2022/04/04 10:51:36;;;;;;;0.30;0.20;;;;;;;10.18;41.33;100041.72;5034578;28;20510;-78
2022/04/04 10:54:04;;;;;;;0.30;0.20;;;;;;;10.47;41.10;100034.66;5034198;28;20982;-78
2022/04/04 10:56:33;;;;;;;0.30;0.23;;;;;;;10.59;41.95;100028.94;5016664;28;20448;-77
2022/04/04 10:59:15;;;;;;;0.30;0.20;;;;;;;10.78;41.99;100039.81;5034792;28;20463;-77
2022/04/04 11:01:43;;;;;;;0.30;0.20;;;;;;;10.88;42.14;100028.81;5016895;28;20506;-78
2022/04/04 11:04:29;;;;;;;0.30;0.20;;;;;;;11.21;42.05;100020.59;5035005;28;20468;-77
2022/04/04 11:10:06;;;;;;;0.30;0.30;;;;;;;11.17;40.88;100016.31;5017262;28;20443;-76
2022/04/04 11:13:05;;;;;;;0.30;0.20;;;;;;;11.33;40.43;100014.84;5016492;28;20456;-76
2022/04/04 11:15:48;;;;;;;0.30;0.20;;;;;;;11.56;39.96;100014.88;5011912;28;20518;-77
2022/04/04 11:18:15;;;;;;;0.30;0.20;;;;;;;11.26;39.19;100008.00;5015940;28;20440;-76
2022/04/04 11:20:59;;;;;;;0.30;0.20;;;;;;;10.94;39.10;100004.66;5034238;28;20482;-77
2022/04/04 11:23:30;;;;;;;0.30;0.20;;;;;;;11.06;40.01;99997.19;5033318;28;20941;-77
2022/04/04 11:25:57;;;;;;;0.40;0.30;;;;;;;11.13;40.33;99993.41;5033600;28;20834;-77
2022/04/04 11:28:31;;;;;;;0.30;0.20;;;;;;;11.17;40.55;99984.38;5033201;28;20452;-77
2022/04/04 11:31:06;;;;;;;0.70;0.70;;;;;;;11.21;40.35;99981.53;5033227;28;20486;-76
2022/04/04 11:33:45;;;;;;;0.30;0.20;;;;;;;11.12;40.49;99984.56;5033342;28;20546;-77
2022/04/04 11:36:23;;;;;;;0.30;0.20;;;;;;;10.92;40.46;99982.59;5001145;28;20526;-77
2022/04/04 11:38:51;;;;;;;0.30;0.20;;;;;;;10.77;40.79;99961.84;5033816;28;20450;-77
2022/04/04 11:41:20;;;;;;;0.30;0.20;;;;;;;11.06;40.80;99957.28;5015574;28;20495;-76
2022/04/04 11:43:52;;;;;;;0.30;0.20;;;;;;;11.00;40.76;99952.22;5033309;28;20624;-76
2022/04/04 11:46:19;;;;;;;0.30;0.20;;;;;;;11.12;40.40;99943.78;5015683;28;20506;-77